Terminal Aerodrome Forecast
Issued by NWS Kansas City/Pleasant Hill, MO

Home | Current Version | Previous Version | Text Only | Print | Product List | Glossary On
Versions: 1 2 3 4 5 6 7 8 9 10 11 12 13 14 15 16 17 18 19 20
870
FTUS43 KEAX 301550 AAA
TAFMCI
TAF AMD
KMCI 301550Z 3016/0112 15008KT 6SM BR VCSH SCT006 OVC010
     FM301700 20008KT P6SM SCT008
     FM302000 24010KT P6SM SCT040
     FM010000 27008KT P6SM BKN060
     FM010500 27006KT P6SM SCT020=

USA.gov is the U.S. government's official web portal to all federal, state and local government web resources and services.